Time;durP1;ratioP1;P1;durP2;ratioP2;P2;SDS_P1;SDS_P2;PMS_P1;PMS_P2;Temp;Humidity;BMP_temperature;BMP_pressure;BME280_temperature;BME280_humidity;BME280_pressure;Samples;Min_cycle;Max_cycle;Signal;HPM_P1;HPM_P2
2022/01/19 00:01:17;;;;;;;45.10;18.55;;;4.50;99.90;;;;;;4999382;28;20052;-82
2022/01/19 00:03:42;;;;;;;43.40;18.27;;;4.40;99.90;;;;;;4998577;28;20041;-82
2022/01/19 00:06:08;;;;;;;46.50;17.58;;;4.40;99.90;;;;;;5001867;28;20038;-81
2022/01/19 00:08:34;;;;;;;47.95;18.23;;;4.40;99.90;;;;;;4983657;28;20153;-81
2022/01/19 00:11:00;;;;;;;48.58;18.88;;;4.40;99.90;;;;;;4997765;28;20157;-81
2022/01/19 00:13:26;;;;;;;49.38;19.10;;;4.50;99.90;;;;;;4999726;28;20102;-81
2022/01/19 00:15:52;;;;;;;54.20;20.77;;;4.50;99.90;;;;;;5000239;28;20041;-81
2022/01/19 00:18:21;;;;;;;53.17;20.08;;;4.50;99.90;;;;;;5000183;28;20264;-81
2022/01/19 00:20:48;;;;;;;56.20;21.33;;;4.50;99.90;;;;;;5000550;28;20227;-81
2022/01/19 00:23:16;;;;;;;53.70;20.88;;;4.60;99.90;;;;;;4999669;28;20449;-81
2022/01/19 00:25:43;;;;;;;56.55;21.83;;;4.60;99.90;;;;;;4984582;28;20346;-81
2022/01/19 00:28:09;;;;;;;55.15;21.35;;;4.60;99.90;;;;;;4995199;28;20049;-81
2022/01/19 00:30:35;;;;;;;55.47;21.10;;;4.60;99.90;;;;;;5002914;28;20033;-81
2022/01/19 00:33:01;;;;;;;60.25;23.30;;;4.70;99.90;;;;;;5001193;28;20472;-81
2022/01/19 00:35:27;;;;;;;61.63;22.70;;;4.70;99.90;;;;;;5000615;28;20271;-81
2022/01/19 00:37:52;;;;;;;60.15;22.38;;;4.70;99.90;;;;;;4998704;28;20038;-81
2022/01/19 00:40:19;;;;;;;56.03;22.73;;;4.70;99.90;;;;;;4992593;28;20049;-81
2022/01/19 00:42:45;;;;;;;53.28;20.95;;;4.70;99.90;;;;;;4985647;28;20054;-81
2022/01/19 00:45:13;;;;;;;55.35;22.55;;;4.70;99.90;;;;;;4983494;28;20476;-81
2022/01/19 00:47:39;;;;;;;66.05;22.85;;;4.80;99.90;;;;;;4984711;28;20493;-80
2022/01/19 00:50:07;;;;;;;60.50;22.35;;;4.80;99.90;;;;;;4999820;28;20056;-81
2022/01/19 00:52:35;;;;;;;66.07;21.85;;;4.80;99.90;;;;;;4980825;28;20297;-81
2022/01/19 00:55:05;;;;;;;57.88;22.30;;;4.70;99.90;;;;;;5001406;28;20153;-81
2022/01/19 00:57:31;;;;;;;62.83;23.25;;;4.70;99.90;;;;;;4976748;28;20177;-81
2022/01/19 00:59:57;;;;;;;57.88;22.20;;;4.80;99.90;;;;;;5000535;28;20216;-81
2022/01/19 01:02:22;;;;;;;64.82;24.88;;;4.70;99.90;;;;;;4998118;28;20503;-81
2022/01/19 01:04:48;;;;;;;43.78;20.33;;;4.70;99.90;;;;;;5000365;28;20409;-81
2022/01/19 01:07:14;;;;;;;58.10;22.80;;;4.70;99.90;;;;;;4999222;28;20116;-81
2022/01/19 01:09:39;;;;;;;60.20;24.02;;;4.70;99.90;;;;;;5000816;28;20515;-81
2022/01/19 01:12:19;;;;;;;61.75;24.98;;;4.70;99.90;;;;;;5019112;28;20461;-80
2022/01/19 01:20:17;;;;;;;60.60;22.33;;;4.70;99.90;;;;;;5014874;28;20128;-81
2022/01/19 01:22:43;;;;;;;63.70;24.00;;;4.70;99.90;;;;;;4999178;28;20147;-81
2022/01/19 01:25:09;;;;;;;62.22;25.98;;;4.70;99.90;;;;;;4982436;28;20115;-81
2022/01/19 01:27:37;;;;;;;62.58;24.48;;;4.70;99.90;;;;;;4997884;28;20065;-81
2022/01/19 01:30:07;;;;;;;63.42;25.67;;;4.70;99.90;;;;;;4984566;28;20041;-81
2022/01/19 01:32:33;;;;;;;68.38;27.05;;;4.70;99.90;;;;;;4997508;28;20233;-81
2022/01/19 01:34:59;;;;;;;67.70;25.70;;;4.70;99.90;;;;;;5014472;28;20160;-81
2022/01/19 01:37:25;;;;;;;64.72;27.00;;;4.70;99.90;;;;;;4995019;28;20045;-80
2022/01/19 01:39:50;;;;;;;63.33;25.00;;;4.80;99.90;;;;;;5000393;28;20050;-80
2022/01/19 01:42:20;;;;;;;66.30;26.08;;;4.70;99.90;;;;;;5002939;28;20057;-81
2022/01/19 01:44:50;;;;;;;71.88;26.20;;;4.70;99.90;;;;;;4975988;28;20056;-81
2022/01/19 01:47:19;;;;;;;66.10;25.92;;;4.80;99.90;;;;;;4999658;28;20584;-81
2022/01/19 01:55:15;;;;;;;75.45;25.05;;;4.80;99.90;;;;;;4999305;28;20076;-81
2022/01/19 01:57:41;;;;;;;59.20;23.77;;;4.80;99.90;;;;;;4983929;28;20042;-81
2022/01/19 02:00:09;;;;;;;60.75;24.75;;;4.80;99.90;;;;;;4981771;28;20053;-81
2022/01/19 02:02:35;;;;;;;66.13;26.73;;;4.80;99.90;;;;;;5000025;28;20116;-81
2022/01/19 02:05:01;;;;;;;84.93;28.20;;;4.80;99.90;;;;;;4983426;28;20113;-81
2022/01/19 02:09:56;;;;;;;80.55;28.55;;;4.80;99.90;;;;;;4998901;28;20398;-81
2022/01/19 02:23:35;;;;;;;91.40;29.43;;;4.80;99.90;;;;;;5017466;28;20580;-81
2022/01/19 02:26:06;;;;;;;87.03;29.73;;;4.80;99.90;;;;;;4999016;28;20392;-81
2022/01/19 02:36:50;;;;;;;;;;;4.80;99.90;;;;;;5001269;28;20052;-81
2022/01/19 02:42:05;;;;;;;72.65;24.98;;;4.80;99.90;;;;;;5000585;28;20076;-81
2022/01/19 02:46:37;;;;;;;72.32;25.83;;;4.80;99.90;;;;;;4978039;28;20056;-81
2022/01/19 02:49:55;;;;;;;74.28;24.77;;;4.70;99.90;;;;;;5000209;28;20045;-81
2022/01/19 02:52:22;;;;;;;68.50;24.25;;;4.70;99.90;;;;;;4982497;28;20060;-81
2022/01/19 02:54:49;;;;;;;77.25;25.60;;;4.70;99.90;;;;;;5001624;28;20037;-81
2022/01/19 02:57:16;;;;;;;69.78;24.98;;;4.60;99.90;;;;;;5023011;28;20041;-81
2022/01/19 03:10:22;;;;;;;69.15;25.30;;;4.60;99.90;;;;;;4998330;28;20476;-80
2022/01/19 03:12:48;;;;;;;67.70;25.75;;;4.60;99.90;;;;;;4983583;28;20034;-80
2022/01/19 03:15:14;;;;;;;76.13;27.88;;;4.60;99.90;;;;;;4984614;28;20285;-81
2022/01/19 03:17:40;;;;;;;75.25;26.75;;;4.60;99.90;;;;;;5002994;28;20437;-81
2022/01/19 03:20:08;;;;;;;80.15;26.25;;;4.60;99.90;;;;;;5001707;28;20102;-81
2022/01/19 03:22:40;;;;;;;74.10;26.30;;;4.60;99.90;;;;;;4997921;28;20235;-81
2022/01/19 03:25:12;;;;;;;74.80;26.50;;;4.60;99.90;;;;;;4995160;28;20072;-80
2022/01/19 03:27:40;;;;;;;76.90;27.63;;;4.60;99.90;;;;;;4997423;28;20076;-81
2022/01/19 03:30:08;;;;;;;72.93;27.77;;;4.50;99.90;;;;;;4999304;28;20516;-81
2022/01/19 03:32:34;;;;;;;81.95;28.67;;;4.50;99.90;;;;;;5015015;28;20044;-81
2022/01/19 03:35:00;;;;;;;79.90;27.35;;;4.60;99.90;;;;;;4997677;28;20049;-81
2022/01/19 03:37:25;;;;;;;79.40;28.35;;;4.60;99.90;;;;;;5002139;28;20404;-81
2022/01/19 03:39:51;;;;;;;81.53;28.42;;;4.50;99.90;;;;;;5001383;28;20098;-81
2022/01/19 03:42:19;;;;;;;77.53;28.08;;;4.50;99.90;;;;;;5015857;28;20097;-81
2022/01/19 03:44:45;;;;;;;73.03;27.48;;;4.50;99.90;;;;;;4998177;28;20037;-81
2022/01/19 03:47:11;;;;;;;75.57;27.70;;;4.50;99.90;;;;;;5000600;28;20050;-81
2022/01/19 03:49:36;;;;;;;77.70;30.10;;;4.50;99.90;;;;;;4982867;28;20089;-81
2022/01/19 03:52:05;;;;;;;70.35;28.67;;;4.50;99.90;;;;;;5001030;28;20037;-81
2022/01/19 03:54:37;;;;;;;79.38;28.38;;;4.40;99.90;;;;;;4985365;28;20063;-80
2022/01/19 03:57:03;;;;;;;66.65;26.52;;;4.50;99.90;;;;;;4981143;28;20049;-81
2022/01/19 03:59:29;;;;;;;72.63;28.13;;;4.50;99.90;;;;;;4985722;28;20503;-81
2022/01/19 04:01:57;;;;;;;67.68;27.40;;;4.50;99.90;;;;;;4984597;28;20128;-81
2022/01/19 04:07:09;;;;;;;;;;;4.40;99.90;;;;;;4998771;28;20158;-81
2022/01/19 04:09:41;;;;;;;65.45;26.80;;;4.40;99.90;;;;;;5001421;28;20574;-81
2022/01/19 04:12:10;;;;;;;75.05;28.85;;;4.40;99.90;;;;;;5000441;28;20064;-81
2022/01/19 04:14:36;;;;;;;69.57;28.55;;;4.40;99.90;;;;;;5015071;28;20037;-81
2022/01/19 04:17:04;;;;;;;69.53;29.40;;;4.40;99.90;;;;;;5017569;28;20048;-81
2022/01/19 04:19:34;;;;;;;74.97;29.13;;;4.40;99.90;;;;;;4981994;28;20042;-81
2022/01/19 04:22:03;;;;;;;75.93;28.10;;;4.40;99.90;;;;;;5014561;28;20049;-81
2022/01/19 04:24:29;;;;;;;75.97;29.17;;;4.40;99.90;;;;;;5000377;28;20461;-81
2022/01/19 04:29:48;;;;;;;68.40;29.08;;;4.30;99.90;;;;;;4999090;28;20060;-81
2022/01/19 04:32:18;;;;;;;71.80;30.15;;;4.30;99.90;;;;;;5000823;28;20046;-81
2022/01/19 04:34:46;;;;;;;70.13;29.90;;;4.30;99.90;;;;;;4990883;28;20046;-81
2022/01/19 04:45:48;;;;;;;63.55;27.27;;;4.30;99.90;;;;;;4999645;28;20160;-81
2022/01/19 05:06:45;;;;;;;67.57;28.98;;;4.10;99.90;;;;;;5011834;28;20045;-81
2022/01/19 05:09:27;;;;;;;75.25;28.75;;;4.10;99.90;;;;;;5014255;28;20247;-81
2022/01/19 05:14:37;;;;;;;75.90;29.37;;;4.10;99.90;;;;;;4994672;28;20441;-81
2022/01/19 05:17:03;;;;;;;67.82;27.70;;;4.10;99.90;;;;;;4981315;28;20041;-80
2022/01/19 05:19:28;;;;;;;66.63;29.20;;;4.10;99.90;;;;;;5013314;28;20136;-81
2022/01/19 05:21:54;;;;;;;64.05;29.13;;;4.20;99.90;;;;;;4990644;28;20192;-81
2022/01/19 05:24:20;;;;;;;60.22;26.55;;;4.20;99.90;;;;;;4997333;28;20501;-81
2022/01/19 05:26:46;;;;;;;63.92;27.02;;;4.20;99.90;;;;;;4996461;28;20324;-81
2022/01/19 05:29:12;;;;;;;59.97;28.48;;;4.20;99.90;;;;;;4997358;28;20051;-81
2022/01/19 05:31:38;;;;;;;57.25;26.25;;;4.10;99.90;;;;;;4982154;28;20273;-81
2022/01/19 05:34:04;;;;;;;61.22;27.48;;;4.10;99.90;;;;;;4999349;28;20188;-81
2022/01/19 05:36:32;;;;;;;56.97;26.75;;;4.10;99.90;;;;;;4973938;28;20045;-81
2022/01/19 05:39:00;;;;;;;58.55;27.10;;;4.10;99.90;;;;;;4997442;28;20045;-81
2022/01/19 05:41:26;;;;;;;58.80;27.00;;;4.10;99.90;;;;;;4998363;28;20045;-81
2022/01/19 05:43:51;;;;;;;60.05;28.92;;;4.10;99.90;;;;;;4994504;28;20068;-81
2022/01/19 05:46:19;;;;;;;61.72;28.50;;;4.10;99.90;;;;;;4999200;28;20476;-81
2022/01/19 05:48:45;;;;;;;58.70;27.50;;;4.10;99.90;;;;;;4976750;28;20034;-81
2022/01/19 05:51:11;;;;;;;66.78;29.85;;;4.10;99.90;;;;;;4998015;28;20111;-81
2022/01/19 05:53:36;;;;;;;59.67;27.98;;;4.10;99.90;;;;;;4995189;28;20025;-81
2022/01/19 05:56:02;;;;;;;63.30;29.58;;;4.10;99.90;;;;;;4996374;28;20048;-81
2022/01/19 05:58:28;;;;;;;63.83;28.67;;;4.10;99.90;;;;;;4992416;28;20041;-81
2022/01/19 06:00:54;;;;;;;58.30;28.83;;;4.10;99.90;;;;;;4991801;28;20049;-81
2022/01/19 06:03:19;;;;;;;58.60;27.00;;;4.10;99.90;;;;;;4999917;28;20076;-81
2022/01/19 06:05:45;;;;;;;62.38;28.17;;;4.20;99.90;;;;;;4997447;28;20524;-81
2022/01/19 06:10:54;;;;;;;66.32;27.75;;;4.10;99.90;;;;;;4997934;28;20508;-81
2022/01/19 06:13:20;;;;;;;62.17;29.58;;;4.10;99.90;;;;;;4996511;28;20056;-81
2022/01/19 06:15:47;;;;;;;63.40;30.02;;;4.20;99.90;;;;;;4998130;28;20496;-81
2022/01/19 06:18:14;;;;;;;61.92;27.48;;;4.10;99.90;;;;;;4999139;28;20112;-81
2022/01/19 06:20:40;;;;;;;63.17;29.10;;;4.20;99.90;;;;;;4996764;28;20068;-81
2022/01/19 06:23:09;;;;;;;68.00;29.73;;;4.20;99.90;;;;;;4999086;28;20046;-81
2022/01/19 06:25:35;;;;;;;66.97;29.30;;;4.20;99.90;;;;;;4999149;28;20053;-81
2022/01/19 06:28:01;;;;;;;58.25;27.58;;;4.20;99.90;;;;;;4969130;28;20041;-81
2022/01/19 06:30:27;;;;;;;63.15;29.42;;;4.20;99.90;;;;;;4998098;28;20033;-81
2022/01/19 06:32:53;;;;;;;67.00;30.83;;;4.20;99.90;;;;;;4996967;28;20348;-81
2022/01/19 06:35:19;;;;;;;59.58;28.90;;;4.20;99.90;;;;;;4999223;28;20049;-81
2022/01/19 06:37:45;;;;;;;64.22;29.05;;;4.20;99.90;;;;;;4991716;28;20282;-81
2022/01/19 06:40:13;;;;;;;61.65;29.00;;;4.20;99.90;;;;;;4998522;28;20071;-81
2022/01/19 06:42:39;;;;;;;62.25;29.20;;;4.20;99.90;;;;;;4996284;28;20096;-81
2022/01/19 06:45:06;;;;;;;65.45;28.40;;;4.20;99.90;;;;;;4976240;28;20136;-81
2022/01/19 06:47:32;;;;;;;59.72;28.48;;;4.20;99.90;;;;;;4996684;28;20425;-81
2022/01/19 06:49:58;;;;;;;64.82;28.42;;;4.20;99.90;;;;;;4991566;28;20046;-81
2022/01/19 06:52:24;;;;;;;53.85;28.13;;;4.30;99.90;;;;;;4992309;28;20061;-81
2022/01/19 06:54:50;;;;;;;63.08;28.40;;;4.20;99.90;;;;;;4996015;28;20064;-81
2022/01/19 06:57:16;;;;;;;65.30;29.73;;;4.20;99.90;;;;;;4997326;28;20919;-80
2022/01/19 06:59:42;;;;;;;65.80;29.33;;;4.20;99.90;;;;;;4976949;28;20087;-81
2022/01/19 07:02:09;;;;;;;61.70;27.90;;;4.30;99.90;;;;;;4996768;28;20092;-80
2022/01/19 07:04:36;;;;;;;67.63;31.35;;;4.30;99.90;;;;;;5000927;28;20430;-80
2022/01/19 07:07:02;;;;;;;60.45;28.80;;;4.30;99.90;;;;;;5014973;28;20077;-80
2022/01/19 07:09:28;;;;;;;60.00;29.80;;;4.30;99.90;;;;;;4989421;28;20069;-80
2022/01/19 07:11:55;;;;;;;62.60;28.63;;;4.30;99.90;;;;;;4993902;28;20062;-80
2022/01/19 07:14:21;;;;;;;61.03;29.60;;;4.20;99.90;;;;;;4993153;28;20121;-80
2022/01/19 07:16:47;;;;;;;58.38;29.58;;;4.20;99.90;;;;;;4999774;28;20045;-80
2022/01/19 07:19:13;;;;;;;64.95;29.23;;;4.30;99.90;;;;;;4986682;28;20037;-80
2022/01/19 07:21:39;;;;;;;61.95;28.85;;;4.30;99.90;;;;;;4995260;28;20144;-80
2022/01/19 07:24:05;;;;;;;61.80;29.85;;;4.30;99.90;;;;;;4998870;28;20045;-80
2022/01/19 07:26:31;;;;;;;61.58;29.27;;;4.30;99.90;;;;;;4980416;28;20393;-80
2022/01/19 07:28:59;;;;;;;66.57;30.75;;;4.30;99.90;;;;;;4997916;28;20055;-80
2022/01/19 07:31:25;;;;;;;69.60;30.85;;;4.30;99.90;;;;;;4996201;28;20044;-80
2022/01/19 07:33:51;;;;;;;69.00;31.63;;;4.30;99.90;;;;;;4980248;28;20393;-80
2022/01/19 07:36:17;;;;;;;66.97;31.08;;;4.30;99.90;;;;;;4996761;28;20060;-80
2022/01/19 07:38:42;;;;;;;62.67;31.20;;;4.30;99.90;;;;;;4989977;28;20041;-81
2022/01/19 07:41:09;;;;;;;64.75;31.52;;;4.30;99.90;;;;;;4994115;28;20056;-80
2022/01/19 07:43:37;;;;;;;68.85;31.08;;;4.40;99.90;;;;;;4991713;28;20064;-80
2022/01/19 07:46:03;;;;;;;65.53;29.90;;;4.30;99.90;;;;;;5001639;28;20037;-80
2022/01/19 07:48:29;;;;;;;65.97;30.75;;;4.30;99.90;;;;;;5017039;28;20046;-80
2022/01/19 07:50:55;;;;;;;70.95;31.88;;;4.30;99.90;;;;;;4993554;28;20042;-80
2022/01/19 07:53:21;;;;;;;64.75;29.17;;;4.30;99.90;;;;;;4991298;28;20254;-80
2022/01/19 07:55:49;;;;;;;69.03;30.95;;;4.30;99.90;;;;;;4969036;28;20405;-81
2022/01/19 07:58:15;;;;;;;70.68;31.42;;;4.40;99.90;;;;;;4990787;28;20045;-80
2022/01/19 08:00:42;;;;;;;61.90;29.67;;;4.40;99.90;;;;;;4991949;28;20049;-80
2022/01/19 08:03:09;;;;;;;69.82;31.27;;;4.40;99.90;;;;;;4991176;28;20073;-80
2022/01/19 08:05:35;;;;;;;59.83;28.95;;;4.40;99.90;;;;;;4976591;28;20524;-80
2022/01/19 08:08:02;;;;;;;69.90;30.23;;;4.40;99.90;;;;;;4994324;28;20053;-80
2022/01/19 08:10:29;;;;;;;65.72;31.40;;;4.40;99.90;;;;;;5001305;28;20077;-80
2022/01/19 08:12:56;;;;;;;69.22;31.45;;;4.40;99.90;;;;;;4996063;28;20376;-80
2022/01/19 08:15:22;;;;;;;75.75;32.20;;;4.40;99.90;;;;;;4996427;28;20045;-80
2022/01/19 08:17:47;;;;;;;65.05;29.70;;;4.40;99.90;;;;;;4994289;28;20401;-80
2022/01/19 08:20:14;;;;;;;72.60;32.13;;;4.40;99.90;;;;;;4996958;28;20069;-80
2022/01/19 08:22:39;;;;;;;65.90;31.42;;;4.40;99.90;;;;;;4998041;28;20044;-80
2022/01/19 08:25:05;;;;;;;67.97;29.98;;;4.50;99.90;;;;;;4975450;28;20049;-80
2022/01/19 08:27:31;;;;;;;71.45;31.50;;;4.40;99.90;;;;;;4995927;28;20050;-80
2022/01/19 08:29:57;;;;;;;68.97;32.33;;;4.40;99.90;;;;;;4991860;28;20030;-80
2022/01/19 08:32:24;;;;;;;66.72;30.73;;;4.40;99.90;;;;;;4995784;28;20370;-81
2022/01/19 08:34:53;;;;;;;71.97;31.10;;;4.40;99.90;;;;;;5015000;28;20041;-80
2022/01/19 08:37:18;;;;;;;61.50;29.83;;;4.40;99.90;;;;;;4973705;28;20048;-80
2022/01/19 08:39:44;;;;;;;68.20;32.05;;;4.40;99.90;;;;;;4991784;28;20037;-81
2022/01/19 08:42:11;;;;;;;63.38;29.65;;;4.40;99.90;;;;;;4998436;28;20061;-80
2022/01/19 08:44:38;;;;;;;65.25;31.42;;;4.40;99.90;;;;;;4977529;28;20114;-80
2022/01/19 08:47:08;;;;;;;66.00;29.85;;;4.40;99.90;;;;;;5013480;28;20195;-80
2022/01/19 08:49:34;;;;;;;69.88;30.92;;;4.40;99.90;;;;;;4993429;28;20045;-80
2022/01/19 08:52:02;;;;;;;66.20;30.92;;;4.50;99.90;;;;;;5014137;28;20381;-80
2022/01/19 08:54:27;;;;;;;70.60;30.88;;;4.50;99.90;;;;;;4982681;28;20443;-80
2022/01/19 08:56:54;;;;;;;58.35;29.02;;;4.50;99.90;;;;;;4994227;28;20041;-80
2022/01/19 08:59:20;;;;;;;63.65;31.52;;;4.60;99.90;;;;;;4992951;28;20039;-80
2022/01/19 09:01:46;;;;;;;64.72;30.42;;;4.60;99.90;;;;;;4997015;28;20045;-80
2022/01/19 09:04:12;;;;;;;60.83;29.45;;;4.60;99.90;;;;;;4995712;28;20574;-81
2022/01/19 09:06:37;;;;;;;60.03;28.45;;;4.60;99.90;;;;;;4974624;28;20339;-80
2022/01/19 09:09:03;;;;;;;64.22;30.08;;;4.60;99.90;;;;;;4997147;28;20454;-80
2022/01/19 09:11:29;;;;;;;67.03;30.27;;;4.60;99.90;;;;;;4993337;28;20047;-80
2022/01/19 09:13:54;;;;;;;59.67;28.52;;;4.70;99.90;;;;;;4990054;28;20440;-80
2022/01/19 09:16:20;;;;;;;66.53;30.85;;;4.70;99.90;;;;;;5014247;28;20051;-80
2022/01/19 09:18:46;;;;;;;61.47;29.52;;;4.80;99.90;;;;;;4994951;28;20047;-80
2022/01/19 09:21:12;;;;;;;62.47;30.20;;;4.80;99.90;;;;;;4975015;28;20109;-81
2022/01/19 09:23:40;;;;;;;67.68;29.48;;;4.80;99.90;;;;;;5010368;28;20084;-80
2022/01/19 09:26:06;;;;;;;63.67;30.83;;;4.90;99.90;;;;;;4977247;28;20037;-80
2022/01/19 09:28:31;;;;;;;67.30;30.67;;;5.00;99.90;;;;;;4989448;28;20046;-80
2022/01/19 09:31:00;;;;;;;58.83;29.52;;;4.90;99.90;;;;;;4989546;28;20760;-80
2022/01/19 09:33:29;;;;;;;66.70;31.70;;;4.90;99.90;;;;;;4980983;28;20054;-80
2022/01/19 09:38:27;;;;;;;58.20;29.02;;;4.90;99.90;;;;;;4991275;28;20296;-80
2022/01/19 09:40:53;;;;;;;58.85;30.05;;;4.90;99.90;;;;;;5014378;28;20115;-80
2022/01/19 09:43:22;;;;;;;63.58;30.08;;;4.90;99.90;;;;;;4990487;28;20596;-80
2022/01/19 09:45:57;;;;;;;58.40;30.38;;;4.90;99.90;;;;;;4994261;28;20049;-80
2022/01/19 09:48:24;;;;;;;61.75;30.30;;;4.90;99.90;;;;;;4995840;28;20548;-80
2022/01/19 09:50:53;;;;;;;59.28;30.25;;;5.00;99.90;;;;;;4993885;28;20579;-80
2022/01/19 09:53:20;;;;;;;55.50;28.65;;;5.00;99.90;;;;;;4989948;28;20073;-80
2022/01/19 09:55:46;;;;;;;62.28;30.90;;;5.00;99.90;;;;;;4987056;28;20033;-80
2022/01/19 09:58:12;;;;;;;58.78;31.00;;;5.20;99.90;;;;;;5009555;28;20073;-81
2022/01/19 10:00:38;;;;;;;53.95;28.50;;;5.20;99.90;;;;;;4978714;28;20517;-80
2022/01/19 10:03:18;;;;;;;58.97;30.60;;;5.20;99.90;;;;;;4982310;28;20225;-80
2022/01/19 10:06:07;;;;;;;56.28;30.30;;;5.30;99.90;;;;;;4974945;28;20041;-80
2022/01/19 10:08:34;;;;;;;62.00;31.08;;;5.20;99.90;;;;;;4982764;28;20060;-81
2022/01/19 10:16:59;;;;;;;54.15;28.33;;;5.20;99.90;;;;;;4959478;28;20044;-80
2022/01/19 10:17:01;;;;;;;51.90;28.80;;;5.20;99.90;;;;;;4995606;28;20053;-80
2022/01/19 10:19:46;;;;;;;54.30;30.80;;;5.20;99.90;;;;;;4990100;28;20045;-80
2022/01/19 10:22:15;;;;;;;;;;;5.20;99.90;;;;;;4991861;28;20045;-80
2022/01/19 10:24:50;;;;;;;59.70;30.92;;;5.20;99.90;;;;;;4994056;28;19932;-81
2022/01/19 10:27:20;;;;;;;;;;;5.10;99.90;;;;;;5012402;28;20080;-80
2022/01/19 10:29:48;;;;;;;53.17;29.13;;;5.10;99.90;;;;;;4992425;28;19971;-81
2022/01/19 10:32:15;;;;;;;58.65;30.52;;;5.10;99.90;;;;;;5002212;28;20037;-80
2022/01/19 10:34:40;;;;;;;54.72;31.10;;;5.00;99.90;;;;;;5000165;28;20109;-80
2022/01/19 10:37:06;;;;;;;60.80;31.58;;;5.00;99.90;;;;;;5001664;28;20049;-80
2022/01/19 10:39:40;;;;;;;59.47;30.67;;;5.10;99.90;;;;;;4986671;28;20044;-80
2022/01/19 10:42:16;;;;;;;63.95;32.65;;;5.00;99.90;;;;;;4992900;28;20457;-80
2022/01/19 10:44:45;;;;;;;59.15;32.35;;;5.10;99.90;;;;;;4997427;28;20060;-81
2022/01/19 10:47:11;;;;;;;56.40;32.67;;;5.00;99.90;;;;;;4994452;28;20460;-80
2022/01/19 10:49:55;;;;;;;62.05;32.35;;;5.10;99.90;;;;;;4986148;28;20504;-80
2022/01/19 10:52:26;;;;;;;62.25;33.33;;;5.20;99.90;;;;;;5000299;28;20077;-80
2022/01/19 10:54:52;;;;;;;63.75;34.90;;;5.10;99.90;;;;;;5001548;28;20037;-81
2022/01/19 10:57:18;;;;;;;61.83;33.42;;;5.20;99.90;;;;;;4984120;28;20768;-80
2022/01/19 10:59:44;;;;;;;59.72;31.98;;;5.20;99.90;;;;;;4985453;28;20033;-81
2022/01/19 11:02:12;;;;;;;68.20;35.35;;;5.20;99.90;;;;;;4999318;28;20076;-80
2022/01/19 11:04:39;;;;;;;61.78;33.08;;;5.30;99.90;;;;;;5014990;28;20171;-80
2022/01/19 11:07:12;;;;;;;61.45;33.38;;;5.30;99.90;;;;;;5000088;28;20147;-80
2022/01/19 11:09:45;;;;;;;62.10;34.10;;;5.30;99.90;;;;;;4981386;28;20042;-81
2022/01/19 11:12:15;;;;;;;64.45;34.72;;;5.30;99.90;;;;;;4985191;28;20041;-80
2022/01/19 11:14:42;;;;;;;63.92;32.50;;;5.30;99.90;;;;;;4998544;28;20042;-81
2022/01/19 11:17:09;;;;;;;60.85;33.53;;;5.40;99.90;;;;;;5016057;28;20045;-80
2022/01/19 11:19:39;;;;;;;66.72;36.55;;;5.40;99.90;;;;;;4999092;28;20133;-80
2022/01/19 11:22:36;;;;;;;66.88;35.13;;;5.50;99.90;;;;;;4992700;28;20122;-80
2022/01/19 11:25:01;;;;;;;70.05;35.30;;;5.40;99.90;;;;;;4981402;28;20385;-81
2022/01/19 11:27:34;;;;;;;63.58;35.47;;;5.50;99.90;;;;;;5012753;28;20042;-80
2022/01/19 11:30:12;;;;;;;62.22;33.95;;;5.40;99.90;;;;;;4995782;28;20048;-80
2022/01/19 11:32:38;;;;;;;68.68;36.33;;;5.40;99.90;;;;;;4992244;28;20171;-81
2022/01/19 11:35:06;;;;;;;61.72;35.88;;;5.40;99.90;;;;;;4984249;28;20131;-80
2022/01/19 11:37:34;;;;;;;67.28;35.13;;;5.30;99.90;;;;;;4986245;28;20049;-80
2022/01/19 11:40:08;;;;;;;67.15;36.47;;;5.30;99.90;;;;;;4981855;28;20038;-80
2022/01/19 11:42:38;;;;;;;69.45;36.20;;;5.40;99.90;;;;;;4998257;28;20509;-80
2022/01/19 11:45:07;;;;;;;72.38;36.40;;;5.40;99.90;;;;;;4975269;28;20037;-81
2022/01/19 11:47:33;;;;;;;68.85;36.70;;;5.30;99.90;;;;;;4997818;28;20107;-80
2022/01/19 11:50:08;;;;;;;71.05;37.03;;;5.40;99.90;;;;;;5000545;28;20057;-80
2022/01/19 11:52:39;;;;;;;64.40;34.80;;;5.40;99.90;;;;;;4980550;28;20034;-80
2022/01/19 11:55:14;;;;;;;69.75;37.03;;;5.50;99.90;;;;;;4999858;28;20034;-80
2022/01/19 11:57:41;;;;;;;69.15;36.75;;;5.50;99.90;;;;;;4989116;28;20037;-80
2022/01/19 12:00:12;;;;;;;63.17;34.72;;;5.50;99.90;;;;;;4982049;28;20092;-80
2022/01/19 12:02:41;;;;;;;65.78;35.05;;;5.60;99.90;;;;;;4996150;28;20091;-80
2022/01/19 12:05:32;;;;;;;67.53;35.55;;;5.60;99.90;;;;;;4984016;28;20048;-81
2022/01/19 12:08:00;;;;;;;67.95;35.15;;;5.60;99.90;;;;;;4996214;28;20164;-81
2022/01/19 12:10:32;;;;;;;63.45;35.78;;;5.70;99.90;;;;;;4999823;28;20037;-80
2022/01/19 12:13:31;;;;;;;63.65;35.40;;;5.70;99.90;;;;;;4998798;28;20607;-81
2022/01/19 12:16:15;;;;;;;66.22;36.58;;;5.70;99.90;;;;;;4983753;28;20073;-81
2022/01/19 12:18:51;;;;;;;66.45;36.20;;;5.70;99.90;;;;;;5000246;28;20041;-80
2022/01/19 12:21:36;;;;;;;67.05;34.47;;;5.60;99.90;;;;;;4980683;28;20038;-80
2022/01/19 12:24:26;;;;;;;64.50;34.47;;;5.60;99.90;;;;;;5000247;28;20145;-80
2022/01/19 12:27:01;;;;;;;62.75;33.25;;;5.60;99.90;;;;;;4978308;28;20171;-81
2022/01/19 12:29:33;;;;;;;67.32;34.08;;;5.60;99.90;;;;;;4997337;28;20048;-80
2022/01/19 12:32:00;;;;;;;65.20;33.75;;;5.50;99.90;;;;;;4998419;28;20104;-80
2022/01/19 12:34:40;;;;;;;73.10;36.03;;;5.60;99.90;;;;;;4978783;28;20112;-81
2022/01/19 12:37:06;;;;;;;66.15;33.47;;;5.70;99.90;;;;;;4994748;28;20041;-80
2022/01/19 12:39:34;;;;;;;63.33;31.52;;;5.70;99.90;;;;;;5006153;28;20564;-80
2022/01/19 12:42:26;;;;;;;64.07;31.85;;;5.60;99.90;;;;;;4993330;28;20092;-80
2022/01/19 12:44:57;;;;;;;67.00;34.67;;;5.70;99.90;;;;;;4997736;28;20453;-81
2022/01/19 12:47:28;;;;;;;62.83;33.22;;;5.70;99.90;;;;;;4985911;28;20401;-80
2022/01/19 12:50:19;;;;;;;65.55;33.40;;;5.70;99.90;;;;;;5000088;28;20130;-81
2022/01/19 12:52:52;;;;;;;58.05;31.05;;;5.70;99.90;;;;;;4953880;28;20054;-80
2022/01/19 12:55:19;;;;;;;66.53;31.85;;;5.70;99.90;;;;;;5002961;28;20363;-80
2022/01/19 12:57:47;;;;;;;64.80;32.45;;;5.70;99.90;;;;;;4977639;28;20045;-80
2022/01/19 13:00:16;;;;;;;67.13;34.08;;;5.70;99.90;;;;;;4983217;28;20045;-80
2022/01/19 13:02:42;;;;;;;61.88;33.00;;;5.70;99.90;;;;;;4978467;28;20076;-80
2022/01/19 13:05:14;;;;;;;61.65;32.08;;;5.80;99.90;;;;;;5002835;28;20098;-81
2022/01/19 13:07:52;;;;;;;59.17;30.55;;;6.00;99.90;;;;;;4974529;28;20037;-81
2022/01/19 13:10:50;;;;;;;58.80;30.35;;;6.10;99.90;;;;;;4985295;28;20345;-81
2022/01/19 13:13:29;;;;;;;61.47;29.25;;;6.20;99.90;;;;;;4994934;28;20213;-81
2022/01/19 13:16:02;;;;;;;60.90;30.00;;;6.00;99.90;;;;;;4987624;28;20055;-80
2022/01/19 13:18:29;;;;;;;60.38;30.15;;;6.10;99.90;;;;;;5002812;28;20037;-81
2022/01/19 13:20:57;;;;;;;55.13;30.95;;;6.00;99.90;;;;;;4999850;28;20052;-81
2022/01/19 13:23:24;;;;;;;57.97;30.55;;;6.10;99.90;;;;;;5003910;28;20411;-81
2022/01/19 13:25:59;;;;;;;54.60;29.45;;;6.10;99.90;;;;;;4985607;28;20384;-81
2022/01/19 13:28:30;;;;;;;59.70;30.23;;;6.00;99.90;;;;;;5000795;28;20052;-80
2022/01/19 13:31:09;;;;;;;52.78;29.55;;;6.00;99.90;;;;;;4984290;28;20152;-81
2022/01/19 13:33:35;;;;;;;54.30;28.15;;;6.00;99.90;;;;;;5023351;28;20042;-81
2022/01/19 13:36:01;;;;;;;52.97;28.00;;;6.00;99.90;;;;;;4981639;28;20075;-81
2022/01/19 13:38:28;;;;;;;55.05;30.42;;;5.90;99.90;;;;;;5001322;28;20060;-81
2022/01/19 13:41:06;;;;;;;56.95;30.02;;;6.00;99.90;;;;;;4999803;28;20401;-80
2022/01/19 13:43:34;;;;;;;55.78;29.83;;;5.90;99.90;;;;;;4965286;28;20100;-81
2022/01/19 13:46:12;;;;;;;59.08;30.15;;;5.90;99.90;;;;;;4994389;28;20049;-81
2022/01/19 13:48:39;;;;;;;64.13;29.80;;;5.90;99.90;;;;;;4965126;28;20073;-80
2022/01/19 13:51:10;;;;;;;55.97;29.92;;;5.90;99.90;;;;;;4978257;28;20629;-81
2022/01/19 13:53:42;;;;;;;58.92;29.83;;;5.90;99.90;;;;;;4980380;28;20164;-81
2022/01/19 13:56:10;;;;;;;62.20;31.60;;;5.80;99.90;;;;;;4978332;28;20808;-81
2022/01/19 13:58:46;;;;;;;52.08;30.08;;;5.80;99.90;;;;;;4979328;28;20648;-81
2022/01/19 14:01:19;;;;;;;58.33;30.77;;;5.80;99.90;;;;;;4980406;28;20046;-81
2022/01/19 14:03:47;;;;;;;58.22;31.88;;;5.80;99.90;;;;;;5003217;28;20041;-80
2022/01/19 14:06:23;;;;;;;54.72;29.40;;;5.80;99.90;;;;;;4967983;28;20086;-80
2022/01/19 14:09:02;;;;;;;64.63;32.42;;;5.80;99.90;;;;;;4981297;28;20096;-80
2022/01/19 14:11:28;;;;;;;65.55;31.60;;;5.70;99.90;;;;;;4972193;28;20038;-81
2022/01/19 14:13:58;;;;;;;67.82;32.65;;;5.70;99.90;;;;;;4988846;28;20044;-81
2022/01/19 14:16:27;;;;;;;55.53;29.17;;;5.70;99.90;;;;;;4965502;28;20454;-81
2022/01/19 14:19:06;;;;;;;58.05;31.30;;;5.70;99.90;;;;;;4971159;28;20038;-80